createdAt,value
2019-05-26T00:02:18.595Z,12.30
2019-05-26T00:05:06.779Z,12.30
2019-05-26T00:07:54.613Z,12.30
2019-05-26T00:10:42.374Z,12.30
2019-05-26T00:13:30.229Z,12.10
2019-05-26T00:16:18.274Z,12.20
2019-05-26T00:19:05.888Z,12.20
2019-05-26T00:21:53.966Z,12.20
2019-05-26T00:24:41.525Z,12.30
2019-05-26T00:27:29.197Z,12.20
2019-05-26T00:30:17.441Z,12.30
2019-05-26T00:33:05.354Z,12.20
2019-05-26T00:35:52.870Z,12.00
2019-05-26T00:38:40.066Z,12.10
2019-05-26T00:41:27.558Z,12.10
2019-05-26T00:44:14.857Z,11.80
2019-05-26T00:47:02.626Z,11.70
2019-05-26T00:49:49.926Z,11.70
2019-05-26T00:52:37.357Z,11.70
2019-05-26T00:55:25.216Z,11.70
2019-05-26T00:58:13.321Z,11.70
2019-05-26T01:01:00.991Z,11.60
2019-05-26T01:03:48.993Z,11.70
2019-05-26T01:06:36.531Z,11.70
2019-05-26T01:09:23.966Z,11.70
2019-05-26T01:12:12.081Z,11.80
2019-05-26T01:14:59.843Z,11.80
2019-05-26T01:17:47.837Z,11.90
2019-05-26T01:20:35.748Z,11.90
2019-05-26T01:23:23.669Z,11.90
2019-05-26T01:26:11.185Z,11.90
2019-05-26T01:28:59.114Z,11.90
2019-05-26T01:31:46.455Z,11.90
2019-05-26T01:34:34.069Z,11.90
2019-05-26T01:37:22.180Z,12.00
2019-05-26T01:40:10.101Z,11.90
2019-05-26T01:42:57.695Z,11.90
2019-05-26T01:45:45.653Z,11.90
2019-05-26T01:48:33.293Z,11.90
2019-05-26T01:51:21.072Z,11.90
2019-05-26T01:54:08.847Z,11.90
2019-05-26T01:56:57.063Z,11.70
2019-05-26T01:59:44.965Z,11.70
2019-05-26T02:02:32.502Z,11.70
2019-05-26T02:05:20.473Z,11.80
2019-05-26T02:08:11.891Z,11.80
2019-05-26T02:10:58.556Z,11.80
2019-05-26T02:13:46.323Z,11.80
2019-05-26T02:16:34.474Z,11.70
2019-05-26T02:19:22.573Z,11.80
2019-05-26T02:22:10.327Z,11.70
2019-05-26T02:24:58.057Z,11.60
2019-05-26T02:27:45.359Z,11.50
2019-05-26T02:30:33.307Z,11.50
2019-05-26T02:33:20.944Z,11.50
2019-05-26T02:36:08.667Z,11.50
2019-05-26T02:39:02.587Z,11.40
2019-05-26T02:41:46.318Z,11.40
2019-05-26T02:44:34.222Z,11.50
2019-05-26T02:47:21.975Z,11.50
2019-05-26T02:50:09.610Z,11.50
2019-05-26T02:52:57.514Z,11.50
2019-05-26T02:55:45.438Z,11.60
2019-05-26T02:58:33.143Z,11.40
2019-05-26T03:01:21.054Z,11.40
2019-05-26T03:04:08.963Z,11.40
2019-05-26T03:06:58.591Z,11.40
2019-05-26T03:09:48.533Z,11.50
2019-05-26T03:12:40.255Z,11.50
2019-05-26T03:15:28.353Z,11.40
2019-05-26T03:18:16.584Z,11.50
2019-05-26T03:21:05.089Z,11.50
2019-05-26T03:23:54.230Z,11.40
2019-05-26T03:26:41.644Z,11.40
2019-05-26T03:29:29.741Z,11.20
2019-05-26T03:32:17.844Z,11.20
2019-05-26T03:35:06.575Z,11.30
2019-05-26T03:37:54.487Z,11.30
2019-05-26T03:40:42.061Z,11.30
2019-05-26T03:43:29.505Z,11.40
2019-05-26T03:46:20.931Z,11.40
2019-05-26T03:49:08.646Z,11.40
2019-05-26T03:51:56.420Z,11.40
2019-05-26T03:54:44.127Z,11.40
2019-05-26T03:57:32.456Z,11.40
2019-05-26T04:00:20.181Z,11.50
2019-05-26T04:03:07.470Z,11.40
2019-05-26T04:05:55.637Z,11.40
2019-05-26T04:08:43.147Z,11.40
2019-05-26T04:11:30.808Z,11.40
2019-05-26T04:14:18.564Z,11.30
2019-05-26T04:17:06.091Z,11.40
2019-05-26T04:19:54.226Z,11.40
2019-05-26T04:22:41.955Z,11.30
2019-05-26T04:25:29.874Z,11.30
2019-05-26T04:28:17.474Z,11.30
2019-05-26T04:31:05.351Z,11.30
2019-05-26T04:33:53.133Z,11.40
2019-05-26T04:36:40.582Z,11.40
2019-05-26T04:39:28.461Z,11.40
2019-05-26T04:42:16.091Z,11.50
2019-05-26T04:45:03.694Z,11.60
2019-05-26T04:47:51.200Z,11.50
2019-05-26T04:50:38.828Z,11.60
2019-05-26T04:53:26.084Z,11.60
2019-05-26T04:56:13.914Z,11.70
2019-05-26T04:59:02.082Z,11.70
2019-05-26T05:01:49.842Z,11.70
2019-05-26T05:04:37.937Z,11.60
2019-05-26T05:07:28.298Z,11.60
2019-05-26T05:10:15.147Z,11.50
2019-05-26T05:13:02.998Z,11.60
2019-05-26T05:15:50.633Z,11.50
2019-05-26T05:18:38.414Z,11.70
2019-05-26T05:21:26.474Z,11.90
2019-05-26T05:24:14.622Z,12.00
2019-05-26T05:27:02.660Z,12.00
2019-05-26T05:29:50.521Z,12.10
2019-05-26T05:32:38.015Z,12.20
2019-05-26T05:35:26.087Z,12.30
2019-05-26T05:38:13.489Z,12.30
2019-05-26T05:41:01.046Z,12.40
2019-05-26T05:43:48.952Z,12.40
2019-05-26T05:46:37.026Z,12.50
2019-05-26T05:49:24.766Z,12.50
2019-05-26T05:52:12.858Z,12.60
2019-05-26T05:55:00.793Z,12.60
2019-05-26T05:57:48.751Z,12.50
2019-05-26T06:00:36.578Z,12.60
2019-05-26T06:03:24.288Z,12.70
2019-05-26T06:06:12.146Z,12.70
2019-05-26T06:09:00.137Z,12.70
2019-05-26T06:11:48.088Z,12.80
2019-05-26T06:14:36.055Z,12.90
2019-05-26T06:17:24.065Z,12.80
2019-05-26T06:20:11.821Z,12.80
2019-05-26T06:22:59.205Z,12.80
2019-05-26T06:25:46.806Z,12.80
2019-05-26T06:28:34.566Z,13.00
2019-05-26T06:31:22.621Z,13.10
2019-05-26T06:34:10.383Z,13.10
2019-05-26T06:36:58.428Z,13.10
2019-05-26T06:39:46.661Z,13.20
2019-05-26T06:42:34.694Z,13.40
2019-05-26T06:45:22.889Z,13.50
2019-05-26T06:48:11.468Z,13.60
2019-05-26T06:50:59.761Z,13.60
2019-05-26T06:53:47.681Z,13.70
2019-05-26T06:56:35.039Z,13.80
2019-05-26T06:59:22.554Z,13.80
2019-05-26T07:02:10.166Z,14.00
2019-05-26T07:04:57.790Z,14.00
2019-05-26T07:07:45.707Z,14.00
2019-05-26T07:10:33.517Z,14.10
2019-05-26T07:13:21.323Z,14.10
2019-05-26T07:16:09.026Z,14.00
2019-05-26T07:18:56.975Z,13.90
2019-05-26T07:21:44.771Z,13.90
2019-05-26T07:24:32.418Z,14.00
2019-05-26T07:27:20.445Z,14.20
2019-05-26T07:30:09.973Z,14.30
2019-05-26T07:32:57.938Z,14.40
2019-05-26T07:35:45.757Z,14.20
2019-05-26T07:38:33.690Z,14.10
2019-05-26T07:41:21.392Z,13.90
2019-05-26T07:44:08.962Z,13.80
2019-05-26T07:46:56.858Z,14.00
2019-05-26T07:49:44.501Z,14.10
2019-05-26T07:52:32.385Z,14.20
2019-05-26T07:55:19.986Z,14.40
2019-05-26T07:58:07.758Z,14.60
2019-05-26T08:00:55.263Z,14.70
2019-05-26T08:03:43.035Z,14.70
2019-05-26T08:06:30.342Z,14.80
2019-05-26T08:09:18.249Z,14.90
2019-05-26T08:12:06.434Z,15.00
2019-05-26T08:14:53.908Z,15.10
2019-05-26T08:17:41.786Z,15.20
2019-05-26T08:20:29.580Z,15.20
2019-05-26T08:23:17.141Z,15.30
2019-05-26T08:26:04.326Z,15.40
2019-05-26T08:28:53.562Z,15.50
2019-05-26T08:31:41.065Z,15.50
2019-05-26T08:34:28.833Z,15.60
2019-05-26T08:37:16.566Z,15.60
2019-05-26T08:40:20.236Z,15.70
2019-05-26T08:43:08.073Z,15.80
2019-05-26T08:45:55.916Z,16.00
2019-05-26T08:48:43.425Z,16.00
2019-05-26T08:51:30.925Z,16.10
2019-05-26T08:54:18.666Z,16.20
2019-05-26T08:57:06.699Z,16.30
2019-05-26T08:59:54.761Z,16.40
2019-05-26T09:02:42.642Z,16.40
2019-05-26T09:05:30.546Z,16.50
2019-05-26T09:08:18.026Z,16.50
2019-05-26T09:11:05.560Z,16.50
2019-05-26T09:13:53.637Z,16.60
2019-05-26T09:16:41.376Z,16.80
2019-05-26T09:19:29.203Z,16.70
2019-05-26T09:22:17.094Z,16.90
2019-05-26T09:25:04.865Z,16.30
2019-05-26T09:27:52.813Z,16.10
2019-05-26T09:30:40.871Z,16.30
2019-05-26T09:33:28.582Z,16.50
2019-05-26T09:36:16.309Z,16.70
2019-05-26T09:39:06.163Z,17.10
2019-05-26T09:41:53.825Z,17.40
2019-05-26T09:44:41.453Z,17.30
2019-05-26T09:47:29.473Z,16.80
2019-05-26T09:50:18.024Z,17.00
2019-05-26T09:53:05.587Z,17.10
2019-05-26T09:55:53.651Z,17.20
2019-05-26T09:58:41.238Z,17.40
2019-05-26T10:01:28.928Z,17.50
2019-05-26T10:04:16.410Z,17.70
2019-05-26T10:07:04.558Z,17.90
2019-05-26T10:09:52.350Z,17.60
2019-05-26T10:12:39.849Z,17.70
2019-05-26T10:15:27.424Z,17.60
2019-05-26T10:18:15.689Z,17.60
2019-05-26T10:21:03.738Z,17.60
2019-05-26T10:23:53.172Z,17.60
2019-05-26T10:26:41.209Z,18.00
2019-05-26T10:29:29.307Z,18.10
2019-05-26T10:32:17.166Z,18.20
2019-05-26T10:35:05.781Z,18.50
2019-05-26T10:37:53.829Z,18.70
2019-05-26T10:40:41.991Z,18.80
2019-05-26T10:43:29.846Z,18.50
2019-05-26T10:46:17.842Z,18.10
2019-05-26T10:49:05.871Z,18.00
2019-05-26T10:51:53.793Z,18.00
2019-05-26T10:54:41.735Z,17.80
2019-05-26T10:57:29.650Z,18.30
2019-05-26T11:00:18.186Z,18.80
2019-05-26T11:03:05.660Z,18.90
2019-05-26T11:05:53.886Z,19.10
2019-05-26T11:08:41.364Z,19.20
2019-05-26T11:11:29.260Z,19.00
2019-05-26T11:14:16.813Z,18.90
2019-05-26T11:17:04.714Z,18.40
2019-05-26T11:19:52.589Z,18.50
2019-05-26T11:22:40.076Z,18.80
2019-05-26T11:25:27.979Z,18.60
2019-05-26T11:28:15.797Z,18.60
2019-05-26T11:31:04.652Z,18.80
2019-05-26T11:33:52.464Z,19.00
2019-05-26T11:36:40.491Z,18.90
2019-05-26T11:39:28.420Z,19.10
2019-05-26T11:42:16.246Z,19.40
2019-05-26T11:45:04.319Z,19.50
2019-05-26T11:47:52.074Z,19.70
2019-05-26T11:50:40.187Z,19.90
2019-05-26T11:53:27.634Z,20.00
2019-05-26T11:56:15.690Z,20.10
2019-05-26T11:59:03.494Z,20.30
2019-05-26T12:01:51.303Z,19.90
2019-05-26T12:04:39.258Z,19.60
2019-05-26T12:07:27.069Z,20.00
2019-05-26T12:10:15.416Z,20.30
2019-05-26T12:13:03.601Z,19.60
2019-05-26T12:15:51.303Z,19.50
2019-05-26T12:18:39.164Z,19.30
2019-05-26T12:21:26.484Z,19.40
2019-05-26T12:24:13.755Z,19.40
2019-05-26T12:27:03.465Z,19.30
2019-05-26T12:29:50.655Z,18.90
2019-05-26T12:32:38.405Z,18.90
2019-05-26T12:35:41.296Z,18.70
2019-05-26T12:38:28.856Z,18.90
2019-05-26T12:41:17.494Z,19.00
2019-05-26T12:44:05.923Z,18.50
2019-05-26T12:46:53.597Z,18.50
2019-05-26T12:49:41.278Z,18.70
2019-05-26T12:52:28.719Z,18.40
2019-05-26T12:55:17.343Z,18.70
2019-05-26T12:58:05.313Z,18.90
2019-05-26T13:00:54.960Z,18.90
2019-05-26T13:03:42.590Z,18.80
2019-05-26T13:06:30.554Z,19.20
2019-05-26T13:09:18.689Z,19.70
2019-05-26T13:12:06.827Z,19.90
2019-05-26T13:15:05.389Z,19.50
2019-05-26T13:17:44.250Z,19.70
2019-05-26T13:20:32.415Z,19.90
2019-05-26T13:23:20.286Z,19.50
2019-05-26T13:26:08.130Z,19.40
2019-05-26T13:28:55.910Z,19.60
2019-05-26T13:31:43.988Z,20.30
2019-05-26T13:34:35.378Z,20.10
2019-05-26T13:37:21.398Z,20.50
2019-05-26T13:40:09.550Z,20.70
2019-05-26T13:42:57.740Z,20.80
2019-05-26T13:45:45.434Z,21.20
2019-05-26T13:48:33.550Z,21.00
2019-05-26T13:51:21.706Z,20.70
2019-05-26T13:54:09.888Z,20.60
2019-05-26T13:56:58.105Z,21.10
2019-05-26T13:59:46.145Z,20.90
2019-05-26T14:02:34.175Z,20.70
2019-05-26T14:05:22.573Z,20.60
2019-05-26T14:08:10.488Z,20.50
2019-05-26T14:10:58.631Z,20.30
2019-05-26T14:13:46.065Z,20.20
2019-05-26T14:16:35.379Z,20.40
2019-05-26T14:19:25.645Z,20.40
2019-05-26T14:22:13.254Z,20.40
2019-05-26T14:25:00.875Z,20.70
2019-05-26T14:27:48.296Z,20.70
2019-05-26T14:30:36.433Z,20.70
2019-05-26T14:33:24.277Z,20.70
2019-05-26T14:36:11.778Z,20.50
2019-05-26T14:38:59.040Z,20.40
2019-05-26T14:41:47.158Z,20.60
2019-05-26T14:44:34.932Z,20.80
2019-05-26T14:47:22.746Z,21.20
2019-05-26T14:50:11.783Z,21.60
2019-05-26T14:52:59.406Z,21.30
2019-05-26T14:55:47.234Z,21.50
2019-05-26T14:58:35.251Z,21.50
2019-05-26T15:01:23.346Z,21.10
2019-05-26T15:04:10.866Z,20.90
2019-05-26T15:06:58.558Z,21.10
2019-05-26T15:09:46.502Z,21.40
2019-05-26T15:12:34.582Z,21.40
2019-05-26T15:15:22.910Z,21.40
2019-05-26T15:18:10.753Z,21.10
2019-05-26T15:20:58.752Z,21.60
2019-05-26T15:23:46.486Z,21.70
2019-05-26T15:26:34.833Z,21.50
2019-05-26T15:29:22.592Z,21.60
2019-05-26T15:32:10.347Z,22.10
2019-05-26T15:34:58.358Z,22.30
2019-05-26T15:37:48.211Z,22.30
2019-05-26T15:40:36.089Z,22.50
2019-05-26T15:43:23.516Z,22.80
2019-05-26T15:46:24.193Z,22.70
2019-05-26T15:49:00.736Z,22.30
2019-05-26T15:51:48.840Z,22.10
2019-05-26T15:54:36.309Z,22.10
2019-05-26T15:57:24.003Z,21.90
2019-05-26T16:00:11.830Z,21.90
2019-05-26T16:02:59.395Z,21.90
2019-05-26T16:05:47.302Z,21.50
2019-05-26T16:08:35.482Z,22.10
2019-05-26T16:11:24.117Z,23.20
2019-05-26T16:14:12.387Z,24.00
2019-05-26T16:17:00.305Z,24.90
2019-05-26T16:19:51.392Z,24.00
2019-05-26T16:22:39.618Z,23.50
2019-05-26T16:25:27.179Z,24.00
2019-05-26T16:28:15.613Z,23.60
2019-05-26T16:31:06.842Z,24.60
2019-05-26T16:33:56.150Z,24.90
2019-05-26T16:36:44.395Z,26.50
2019-05-26T16:39:48.409Z,25.40
2019-05-26T16:42:36.959Z,26.50
2019-05-26T16:45:24.696Z,27.70
2019-05-26T16:48:13.021Z,27.80
2019-05-26T16:51:00.885Z,27.90
2019-05-26T16:53:49.199Z,29.20
2019-05-26T16:56:37.360Z,28.50
2019-05-26T16:59:25.382Z,27.70
2019-05-26T17:02:13.732Z,28.60
2019-05-26T17:05:01.975Z,29.60
2019-05-26T17:07:50.602Z,29.80
2019-05-26T17:10:38.258Z,30.10
2019-05-26T17:13:32.859Z,29.60
2019-05-26T17:16:20.394Z,28.80
2019-05-26T17:19:08.661Z,28.90
2019-05-26T17:21:56.984Z,29.10
2019-05-26T17:24:45.717Z,29.50
2019-05-26T17:27:33.591Z,29.80
2019-05-26T17:30:24.922Z,30.00
2019-05-26T17:33:17.509Z,29.80
2019-05-26T17:36:02.813Z,29.20
2019-05-26T17:39:27.157Z,28.10
2019-05-26T17:42:16.167Z,26.60
2019-05-26T17:45:04.572Z,25.70
2019-05-26T17:47:52.458Z,24.80
2019-05-26T17:50:40.375Z,23.90
2019-05-26T17:53:28.345Z,22.90
2019-05-26T17:56:16.287Z,22.10
2019-05-26T17:59:03.877Z,21.90
2019-05-26T18:01:51.821Z,21.70
2019-05-26T18:04:39.630Z,21.20
2019-05-26T18:07:27.149Z,21.10
2019-05-26T18:10:15.371Z,20.80
2019-05-26T18:13:03.294Z,20.50
2019-05-26T18:15:51.187Z,20.50
2019-05-26T18:18:38.974Z,20.30
2019-05-26T18:21:26.549Z,20.00
2019-05-26T18:24:14.237Z,19.90
2019-05-26T18:27:01.898Z,19.90
2019-05-26T18:29:49.570Z,19.80
2019-05-26T18:32:37.109Z,19.70
2019-05-26T18:35:24.463Z,19.60
2019-05-26T18:38:12.159Z,19.50
2019-05-26T18:40:59.693Z,19.40
2019-05-26T18:43:47.363Z,19.30
2019-05-26T18:46:35.359Z,19.30
2019-05-26T18:49:22.982Z,19.20
2019-05-26T18:52:11.332Z,19.20
2019-05-26T18:54:59.278Z,19.00
2019-05-26T18:57:47.430Z,18.90
2019-05-26T19:00:35.574Z,18.80
2019-05-26T19:03:23.218Z,18.70
2019-05-26T19:06:11.045Z,18.60
2019-05-26T19:08:59.098Z,18.40
2019-05-26T19:11:46.695Z,18.10
2019-05-26T19:14:34.632Z,17.80
2019-05-26T19:17:22.501Z,17.20
2019-05-26T19:20:16.206Z,16.90
2019-05-26T19:22:59.730Z,16.70
2019-05-26T19:25:47.342Z,16.70
2019-05-26T19:28:35.821Z,16.80
2019-05-26T19:31:23.275Z,16.60
2019-05-26T19:34:10.846Z,16.60
2019-05-26T19:36:58.475Z,16.60
2019-05-26T19:39:46.590Z,16.70
2019-05-26T19:42:34.003Z,16.70
2019-05-26T19:45:21.972Z,16.80
2019-05-26T19:48:09.905Z,16.80
2019-05-26T19:50:57.651Z,16.80
2019-05-26T19:53:45.539Z,16.70
2019-05-26T19:56:33.177Z,16.60
2019-05-26T19:59:20.906Z,16.50
2019-05-26T20:02:18.484Z,16.50
2019-05-26T20:05:00.027Z,16.00
2019-05-26T20:07:47.687Z,15.60
2019-05-26T20:10:35.432Z,15.50
2019-05-26T20:13:23.073Z,15.50
2019-05-26T20:16:10.573Z,15.60
2019-05-26T20:18:59.731Z,15.70
2019-05-26T20:21:47.491Z,15.60
2019-05-26T20:24:35.009Z,15.60
2019-05-26T20:27:23.007Z,15.60
2019-05-26T20:30:11.140Z,15.60
2019-05-26T20:32:59.126Z,15.60
2019-05-26T20:35:46.857Z,15.60
2019-05-26T20:38:34.938Z,15.50
2019-05-26T20:41:23.413Z,15.30
2019-05-26T20:44:11.569Z,15.20
2019-05-26T20:46:59.346Z,15.00
2019-05-26T20:49:47.077Z,14.80
2019-05-26T20:52:34.995Z,14.90
2019-05-26T20:55:23.048Z,14.90
2019-05-26T20:58:11.111Z,14.90
2019-05-26T21:00:59.007Z,14.90
2019-05-26T21:03:46.850Z,14.80
2019-05-26T21:06:34.358Z,14.80
2019-05-26T21:09:21.994Z,14.70
2019-05-26T21:12:09.449Z,14.70
2019-05-26T21:15:00.245Z,14.70
2019-05-26T21:17:47.193Z,14.70
2019-05-26T21:20:35.688Z,14.60
2019-05-26T21:23:23.500Z,14.50
2019-05-26T21:26:11.616Z,14.40
2019-05-26T21:28:59.774Z,14.30
2019-05-26T21:31:47.583Z,14.30
2019-05-26T21:34:35.525Z,14.30
2019-05-26T21:37:24.529Z,14.30
2019-05-26T21:40:12.803Z,14.20
2019-05-26T21:43:00.795Z,14.10
2019-05-26T21:45:48.580Z,14.00
2019-05-26T21:48:36.477Z,13.90
2019-05-26T21:51:24.683Z,13.90
2019-05-26T21:54:13.040Z,13.80
2019-05-26T21:57:01.188Z,13.80
2019-05-26T21:59:49.667Z,13.70
2019-05-26T22:02:38.283Z,13.80
2019-05-26T22:05:26.461Z,13.70
2019-05-26T22:08:14.435Z,13.70
2019-05-26T22:11:02.535Z,13.70
2019-05-26T22:13:50.410Z,13.60
2019-05-26T22:16:39.116Z,13.60
2019-05-26T22:19:27.183Z,13.50
2019-05-26T22:22:14.893Z,13.40
2019-05-26T22:25:03.060Z,13.30
2019-05-26T22:27:50.806Z,13.20
2019-05-26T22:30:38.921Z,13.10
2019-05-26T22:33:26.947Z,13.00
2019-05-26T22:36:14.810Z,13.00
2019-05-26T22:39:02.423Z,13.00
2019-05-26T22:41:50.280Z,12.90
2019-05-26T22:44:37.794Z,12.90
2019-05-26T22:47:25.754Z,12.90
2019-05-26T22:50:14.100Z,12.80
2019-05-26T22:53:01.516Z,12.70
2019-05-26T22:55:49.227Z,12.70
2019-05-26T22:58:37.396Z,12.70
2019-05-26T23:01:25.402Z,12.70
2019-05-26T23:04:13.349Z,12.70
2019-05-26T23:07:01.303Z,12.60
2019-05-26T23:09:49.001Z,12.40
2019-05-26T23:12:36.675Z,12.40
2019-05-26T23:15:24.674Z,12.30
2019-05-26T23:18:12.444Z,12.30
2019-05-26T23:21:00.379Z,12.40
2019-05-26T23:23:48.251Z,12.30
2019-05-26T23:26:36.031Z,12.30
2019-05-26T23:29:23.761Z,12.20
2019-05-26T23:32:11.594Z,12.20
2019-05-26T23:34:59.573Z,12.10
2019-05-26T23:37:47.372Z,12.10
2019-05-26T23:40:35.511Z,12.10
2019-05-26T23:43:22.902Z,12.00
2019-05-26T23:46:10.570Z,12.00
2019-05-26T23:48:57.977Z,11.90
2019-05-26T23:51:45.546Z,11.90
2019-05-26T23:54:33.451Z,11.90
2019-05-26T23:57:21.076Z,11.90
